TAF

TERMINAL AERODROME FORECAST
STASIUN METEOROLOGI HANG NADIM BATAM
ADDS - METARS form results

Aviation Digital Data Service (ADDS)

Output produced by METARs form (1340 UTC 28 January 2023)
found at http://www.aviationweather.gov/metar/data/
 
METAR text: WIDD 281330Z 01004KT 9000 BKN014 24/24 Q1011 NOSIG
Conditions at: WIDD (HANG NADIM , ID) observed 1330 UTC 28 January 2023
Temperature: 24.0°C (75°F)
Dewpoint: 24.0°C (75°F) [RH = 100%]
Pressure (altimeter): 29.85 inches Hg (1011.0 mb)
Winds: from the N (10 degrees) at 5 MPH (4 knots; 2.1 m/s)
Visibility: 6 miles ( 9 km)
Ceiling: 1400 feet AGL
Clouds: broken clouds at 1400 feet AGL
Weather: no significant weather observed at this time

METAR text: WIDD 281300Z 35005KT 9000 BKN014 24/23 Q1010 NOSIG
Conditions at: WIDD (HANG NADIM , ID) observed 1300 UTC 28 January 2023
Temperature: 24.0°C (75°F)
Dewpoint: 23.0°C (73°F) [RH = 94%]
Pressure (altimeter): 29.82 inches Hg (1010.0 mb)
Winds: from the N (350 degrees) at 6 MPH (5 knots; 2.6 m/s)
Visibility: 6 miles ( 9 km)
Ceiling: 1400 feet AGL
Clouds: broken clouds at 1400 feet AGL
Weather: no significant weather observed at this time

Forecast for: WIDD (HANG NADIM , ID)
Text: TAF WIDD 281100Z 2812/2912 36010KT 8000 -RA SCT014
Forecast period: 1200 UTC 28 January 2023 to 1200 UTC 29 January 2023
Forecast type: FROM: standard forecast or significant change
Winds: from the N (360 degrees) at 12 MPH (10 knots; 5.1 m/s)
Visibility: 5 miles (8 km)
Ceiling: at least 12,000 feet AGL
Clouds: scattered clouds at 1400 feet AGL
Weather: -RA  (light rain)

Informasi TAF dapat diakses juga di http://aviation.bmkg.go.id